Time;durP1;ratioP1;P1;durP2;ratioP2;P2;SDS_P1;SDS_P2;PMS_P1;PMS_P2;Temp;Humidity;BMP_temperature;BMP_pressure;BME280_temperature;BME280_humidity;BME280_pressure;Samples;Min_cycle;Max_cycle;Signal;HPM_P1;HPM_P2
2022/03/01 00:01:35;;;;;;;21.00;11.23;;;1.00;75.50;;;;;;5074739;28;20032;-83
2022/03/01 00:04:01;;;;;;;17.55;9.27;;;1.00;75.40;;;;;;5072593;28;20051;-83
2022/03/01 00:06:26;;;;;;;19.85;10.75;;;1.00;75.00;;;;;;5073604;28;20024;-83
2022/03/01 00:08:54;;;;;;;21.70;10.20;;;1.00;74.90;;;;;;5075375;28;20059;-83
2022/03/01 00:11:21;;;;;;;20.33;11.05;;;1.00;74.60;;;;;;5075088;28;20021;-82
2022/03/01 00:13:46;;;;;;;20.63;10.88;;;1.00;74.10;;;;;;5073735;28;20033;-83
2022/03/01 00:16:12;;;;;;;23.58;10.77;;;1.10;73.80;;;;;;5072357;28;20032;-83
2022/03/01 00:18:37;;;;;;;20.92;9.60;;;1.00;74.10;;;;;;5074359;28;20452;-82
2022/03/01 00:21:03;;;;;;;21.90;10.85;;;0.90;74.10;;;;;;5071798;28;20393;-82
2022/03/01 00:23:28;;;;;;;23.90;10.85;;;1.00;74.00;;;;;;5072942;28;20032;-84
2022/03/01 00:25:54;;;;;;;17.90;10.60;;;1.00;73.60;;;;;;5062430;28;20562;-82
2022/03/01 00:28:19;;;;;;;18.95;9.90;;;1.00;73.20;;;;;;5067265;28;20077;-83
2022/03/01 00:30:45;;;;;;;20.38;10.30;;;0.90;73.40;;;;;;5071117;28;20452;-84
2022/03/01 00:33:10;;;;;;;20.65;9.88;;;1.00;73.60;;;;;;5067833;28;20419;-83
2022/03/01 00:35:36;;;;;;;18.27;10.05;;;0.90;73.20;;;;;;5073596;28;20043;-82
2022/03/01 00:38:01;;;;;;;19.52;9.63;;;0.90;73.20;;;;;;5071448;28;20055;-83
2022/03/01 00:40:27;;;;;;;22.98;10.23;;;0.90;73.40;;;;;;5082929;28;20029;-83
2022/03/01 00:42:52;;;;;;;16.58;9.35;;;0.80;73.50;;;;;;5065217;28;20094;-83
2022/03/01 00:45:18;;;;;;;16.98;8.77;;;0.80;73.50;;;;;;5069399;28;20029;-83
2022/03/01 00:47:43;;;;;;;17.00;9.32;;;0.80;73.50;;;;;;5075189;28;20039;-83
2022/03/01 00:50:09;;;;;;;19.20;9.95;;;0.80;73.10;;;;;;5071120;28;20028;-83
2022/03/01 00:52:34;;;;;;;21.25;9.40;;;0.80;73.20;;;;;;5070500;28;20051;-82
2022/03/01 00:55:00;;;;;;;16.77;8.88;;;0.70;73.50;;;;;;5082504;28;20029;-83
2022/03/01 00:57:25;;;;;;;17.33;8.80;;;0.60;73.70;;;;;;5085572;28;20037;-83
2022/03/01 00:59:51;;;;;;;21.35;9.57;;;0.60;73.60;;;;;;5069693;28;20021;-83
2022/03/01 01:02:16;;;;;;;18.63;8.63;;;0.60;73.80;;;;;;5071304;28;20444;-82
2022/03/01 01:04:42;;;;;;;18.27;8.60;;;0.70;73.30;;;;;;5072187;28;20055;-83
2022/03/01 01:07:08;;;;;;;19.13;8.10;;;0.60;73.50;;;;;;5063290;28;20029;-83
2022/03/01 01:09:33;;;;;;;20.65;10.10;;;0.60;73.30;;;;;;5072374;28;20051;-83
2022/03/01 01:11:59;;;;;;;17.58;8.90;;;0.60;73.20;;;;;;5069525;28;20472;-83
2022/03/01 01:14:24;;;;;;;16.98;9.02;;;0.50;73.70;;;;;;5071425;28;20106;-82
2022/03/01 01:16:51;;;;;;;19.35;9.00;;;0.50;73.60;;;;;;5071661;28;20393;-83
2022/03/01 01:19:16;;;;;;;17.50;9.00;;;0.50;73.40;;;;;;5086090;28;20021;-83
2022/03/01 01:24:26;;;;;;;16.25;9.02;;;0.50;73.50;;;;;;5068667;28;20435;-83
2022/03/01 01:26:52;;;;;;;18.02;8.82;;;0.50;73.50;;;;;;5071188;28;20028;-83
2022/03/01 01:29:17;;;;;;;19.08;8.70;;;0.40;73.80;;;;;;5071328;28;20472;-82
2022/03/01 01:31:43;;;;;;;15.27;8.55;;;0.40;73.70;;;;;;5071058;28;20423;-83
2022/03/01 01:34:08;;;;;;;17.58;9.05;;;0.50;73.30;;;;;;5072214;28;20055;-83
2022/03/01 01:36:34;;;;;;;19.25;7.88;;;0.40;73.30;;;;;;5071033;28;20123;-83
2022/03/01 01:39:00;;;;;;;17.27;8.43;;;0.50;73.10;;;;;;5074291;28;20036;-83
2022/03/01 01:41:26;;;;;;;15.35;8.05;;;0.40;73.50;;;;;;5072085;28;20021;-82
2022/03/01 01:43:51;;;;;;;17.52;9.23;;;0.40;73.30;;;;;;5067701;28;20107;-82
2022/03/01 01:46:17;;;;;;;20.75;8.48;;;0.30;73.70;;;;;;5072442;28;20024;-83
2022/03/01 01:48:42;;;;;;;18.45;8.70;;;0.30;73.90;;;;;;5071248;28;20028;-82
2022/03/01 01:51:08;;;;;;;17.88;9.55;;;0.30;73.90;;;;;;5066160;28;20036;-82
2022/03/01 01:53:34;;;;;;;16.35;8.50;;;0.10;74.20;;;;;;5087228;28;20032;-82
2022/03/01 01:56:00;;;;;;;14.07;8.10;;;0.20;74.70;;;;;;5068556;28;20067;-82
2022/03/01 01:58:25;;;;;;;17.92;8.60;;;0.10;74.70;;;;;;5068676;28;20044;-82
2022/03/01 02:00:51;;;;;;;18.10;9.23;;;0.10;74.90;;;;;;5071849;28;20025;-83
2022/03/01 02:03:16;;;;;;;15.52;8.38;;;0.10;75.00;;;;;;5072269;28;20024;-83
2022/03/01 02:05:42;;;;;;;18.42;8.52;;;0.10;75.10;;;;;;5071869;28;20049;-82
2022/03/01 02:08:07;;;;;;;18.83;8.93;;;0.00;75.20;;;;;;5071405;28;20399;-83
2022/03/01 02:10:33;;;;;;;20.33;8.45;;;0.00;75.60;;;;;;5071071;28;20047;-81
2022/03/01 02:12:59;;;;;;;15.50;8.23;;;0.00;75.90;;;;;;5067475;28;20032;-82
2022/03/01 02:15:25;;;;;;;18.35;9.93;;;-3276.70;75.90;;;;;;5071156;28;20385;-82
2022/03/01 02:17:51;;;;;;;18.88;8.45;;;0.00;76.00;;;;;;5069992;28;20029;-82
2022/03/01 02:20:18;;;;;;;18.05;8.80;;;-3276.70;76.30;;;;;;5070544;28;20042;-82
2022/03/01 02:22:43;;;;;;;17.15;8.63;;;-3276.60;76.50;;;;;;5070834;28;20019;-81
2022/03/01 02:25:09;;;;;;;15.65;8.95;;;-3276.60;76.80;;;;;;5068427;28;20028;-82
2022/03/01 02:27:36;;;;;;;17.13;8.55;;;-3276.60;76.70;;;;;;5062164;28;20373;-82
2022/03/01 02:30:02;;;;;;;18.45;8.93;;;-3276.50;76.90;;;;;;5072130;28;20392;-81
2022/03/01 02:32:28;;;;;;;16.40;8.68;;;-3276.50;77.20;;;;;;5070803;28;20028;-81
2022/03/01 02:34:53;;;;;;;17.85;9.25;;;-3276.50;77.00;;;;;;5069937;28;20028;-81
2022/03/01 02:37:19;;;;;;;17.50;8.60;;;-3276.50;77.10;;;;;;5071526;28;20032;-81
2022/03/01 02:39:44;;;;;;;19.92;8.98;;;-3276.50;77.00;;;;;;5072250;28;20035;-82
2022/03/01 02:42:10;;;;;;;20.10;9.48;;;-3276.50;77.00;;;;;;5070891;28;20040;-82
2022/03/01 02:44:36;;;;;;;19.13;9.27;;;-3276.50;76.90;;;;;;5074852;28;20031;-82
2022/03/01 02:47:01;;;;;;;18.98;9.27;;;-3276.40;77.20;;;;;;5075819;28;20028;-81
2022/03/01 02:49:27;;;;;;;18.17;9.65;;;-3276.30;77.50;;;;;;5075402;28;20090;-81
2022/03/01 02:51:52;;;;;;;17.27;9.00;;;-3276.30;77.70;;;;;;5075711;28;20298;-83
2022/03/01 02:54:18;;;;;;;17.88;8.70;;;-3276.30;77.70;;;;;;5070599;28;20462;-82
2022/03/01 02:56:43;;;;;;;20.83;10.05;;;-3276.30;77.40;;;;;;5074102;28;20479;-82
2022/03/01 02:59:09;;;;;;;18.85;9.63;;;-3276.20;77.50;;;;;;5074766;28;20033;-82
2022/03/01 03:01:34;;;;;;;21.63;9.60;;;-3276.10;78.00;;;;;;5069510;28;20377;-82
2022/03/01 03:04:00;;;;;;;18.33;8.60;;;-3276.10;78.00;;;;;;5066133;28;20519;-82
2022/03/01 03:06:25;;;;;;;20.05;9.57;;;-3276.10;78.20;;;;;;5074034;28;20119;-81
2022/03/01 03:08:51;;;;;;;19.40;8.93;;;-3276.10;78.00;;;;;;5069851;28;20048;-82
2022/03/01 03:11:17;;;;;;;22.65;9.57;;;-3276.10;78.00;;;;;;5066353;28;20032;-82
2022/03/01 03:13:43;;;;;;;19.13;9.20;;;-3276.10;77.90;;;;;;5081439;28;20028;-83
2022/03/01 03:16:10;;;;;;;19.30;9.35;;;-3276.10;77.80;;;;;;5073392;28;20115;-82
2022/03/01 03:18:36;;;;;;;20.65;10.13;;;-3276.00;77.90;;;;;;5069455;28;20025;-83
2022/03/01 03:21:02;;;;;;;19.02;9.00;;;-3276.00;78.30;;;;;;5069761;28;20039;-82
2022/03/01 03:23:28;;;;;;;17.05;8.98;;;-3275.90;78.30;;;;;;5073690;28;20388;-82
2022/03/01 03:25:54;;;;;;;14.52;8.52;;;-3276.00;78.50;;;;;;5071267;28;20028;-82
2022/03/01 03:28:20;;;;;;;18.17;9.18;;;-3275.90;78.50;;;;;;5065193;28;20028;-82
2022/03/01 03:30:45;;;;;;;19.10;8.77;;;-3275.90;78.50;;;;;;5073744;28;20020;-82
2022/03/01 03:33:12;;;;;;;15.60;7.95;;;-3275.90;78.60;;;;;;5091198;22;20053;-78
2022/03/01 03:35:38;;;;;;;18.15;8.50;;;-3275.80;78.60;;;;;;5049150;28;20045;-78
2022/03/01 03:38:04;;;;;;;18.38;9.27;;;-3275.90;78.50;;;;;;5046522;28;20127;-78
2022/03/01 03:40:29;;;;;;;16.63;8.93;;;-3275.80;78.60;;;;;;5051389;28;20151;-79
2022/03/01 03:42:55;;;;;;;20.40;9.45;;;-3275.80;78.70;;;;;;5041154;28;20024;-78
2022/03/01 03:45:21;;;;;;;17.85;8.30;;;-3275.70;78.70;;;;;;5046692;28;20489;-78
2022/03/01 03:47:46;;;;;;;17.05;9.02;;;-3275.80;78.80;;;;;;5069189;28;20098;-78
2022/03/01 03:50:12;;;;;;;19.65;8.68;;;-3275.70;78.70;;;;;;5065251;28;20032;-79
2022/03/01 03:52:39;;;;;;;16.52;8.50;;;-3275.70;78.80;;;;;;5066393;28;20044;-79
2022/03/01 03:55:06;;;;;;;19.23;8.35;;;-3275.70;78.80;;;;;;5061421;28;20042;-78
2022/03/01 03:57:33;;;;;;;17.67;9.10;;;-3275.70;78.90;;;;;;5064931;28;20089;-78
2022/03/01 03:59:59;;;;;;;18.38;8.98;;;-3275.70;78.90;;;;;;5067101;28;20086;-78
2022/03/01 04:02:25;;;;;;;20.38;9.18;;;-3275.80;78.80;;;;;;5050313;28;20036;-78
2022/03/01 04:04:50;;;;;;;21.05;9.13;;;-3275.80;78.70;;;;;;5054288;28;20489;-78
2022/03/01 04:07:16;;;;;;;18.98;8.65;;;-3275.80;78.70;;;;;;5065426;28;20036;-78
2022/03/01 04:09:41;;;;;;;19.15;8.88;;;-3275.80;78.70;;;;;;5041103;28;20094;-78
2022/03/01 04:12:07;;;;;;;19.52;9.05;;;-3275.70;78.70;;;;;;5045329;28;20351;-78
2022/03/01 04:14:33;;;;;;;20.02;9.13;;;-3275.60;78.80;;;;;;5050552;28;20043;-78
2022/03/01 04:16:59;;;;;;;22.48;10.32;;;-3275.70;78.90;;;;;;5062242;28;20059;-79
2022/03/01 04:19:24;;;;;;;14.85;8.07;;;-3275.70;78.60;;;;;;5060373;28;20122;-79
2022/03/01 04:21:50;;;;;;;17.65;8.75;;;-3275.70;78.60;;;;;;5066331;28;20472;-78
2022/03/01 04:24:15;;;;;;;20.95;9.48;;;-3275.70;78.60;;;;;;5066946;28;20511;-78
2022/03/01 04:26:41;;;;;;;19.00;9.80;;;-3275.70;78.40;;;;;;5047824;28;20028;-79
2022/03/01 04:29:06;;;;;;;18.65;8.65;;;-3275.70;78.40;;;;;;5051230;28;20355;-79
2022/03/01 04:31:33;;;;;;;16.67;8.80;;;-3275.70;78.40;;;;;;5050903;28;20507;-80
2022/03/01 04:33:59;;;;;;;19.95;8.80;;;-3275.70;78.60;;;;;;5042175;28;20044;-78
2022/03/01 04:36:25;;;;;;;18.15;9.13;;;-3275.60;78.80;;;;;;5026719;28;20478;-79
2022/03/01 04:38:51;;;;;;;16.70;8.65;;;-3275.60;79.00;;;;;;5039715;28;20025;-79
2022/03/01 04:41:17;;;;;;;19.45;9.52;;;-3275.60;79.20;;;;;;5035774;28;20037;-79
2022/03/01 04:43:42;;;;;;;18.75;9.38;;;-3275.60;79.10;;;;;;5044232;28;20506;-78
2022/03/01 04:46:08;;;;;;;17.10;8.63;;;-3275.60;79.10;;;;;;5033473;28;20032;-80
2022/03/01 04:48:35;;;;;;;19.35;8.80;;;-3275.50;79.50;;;;;;5038423;28;20035;-79
2022/03/01 04:51:01;;;;;;;17.27;8.75;;;-3275.50;79.50;;;;;;5048104;28;20083;-79
2022/03/01 04:53:26;;;;;;;18.05;8.63;;;-3275.50;79.40;;;;;;5030261;28;20047;-79
2022/03/01 04:55:52;;;;;;;18.50;9.10;;;-3275.50;79.50;;;;;;5041145;28;20131;-80
2022/03/01 04:58:18;;;;;;;23.77;9.63;;;-3275.50;79.40;;;;;;5043331;28;20037;-79
2022/03/01 05:00:44;;;;;;;18.33;8.82;;;-3275.50;79.10;;;;;;5043931;28;20022;-79
2022/03/01 05:03:10;;;;;;;17.02;8.60;;;-3275.40;79.50;;;;;;5031557;28;20107;-80
2022/03/01 05:05:36;;;;;;;17.80;9.38;;;-3275.40;79.70;;;;;;5037262;28;20128;-80
2022/03/01 05:08:01;;;;;;;19.15;9.73;;;-3275.40;79.70;;;;;;5026175;28;20102;-79
2022/03/01 05:10:27;;;;;;;18.25;9.95;;;-3275.40;79.70;;;;;;5019228;28;20222;-79
2022/03/01 05:12:55;;;;;;;19.02;9.52;;;-3275.40;79.80;;;;;;5027021;28;20531;-79
2022/03/01 05:15:27;;;;;;;18.08;8.98;;;-3275.30;79.80;;;;;;5023204;28;20029;-79
2022/03/01 05:17:54;;;;;;;20.10;9.85;;;-3275.40;80.00;;;;;;5040801;28;20021;-79
2022/03/01 05:20:20;;;;;;;17.90;8.45;;;-3275.30;80.00;;;;;;5041440;28;20032;-79
2022/03/01 05:22:46;;;;;;;18.85;9.98;;;-3275.30;80.20;;;;;;5041456;28;20148;-79
2022/03/01 05:25:14;;;;;;;17.88;8.85;;;-3275.30;80.30;;;;;;5021351;28;20036;-79
2022/03/01 05:27:42;;;;;;;18.27;8.98;;;-3275.30;80.20;;;;;;5026381;28;20033;-79
2022/03/01 05:30:10;;;;;;;19.20;8.98;;;-3275.30;80.30;;;;;;5021124;28;20066;-80
2022/03/01 05:32:37;;;;;;;18.88;9.63;;;-3275.30;80.30;;;;;;5020085;28;20445;-79
2022/03/01 05:35:04;;;;;;;18.08;9.57;;;-3275.30;80.30;;;;;;5038309;28;20550;-79
2022/03/01 05:37:31;;;;;;;18.25;9.50;;;-3275.30;80.30;;;;;;5028824;28;20371;-80
2022/03/01 05:39:57;;;;;;;18.63;9.70;;;-3275.30;80.10;;;;;;5028418;28;20032;-79
2022/03/01 05:42:26;;;;;;;19.77;9.77;;;-3275.20;80.10;;;;;;5020393;28;20021;-79
2022/03/01 05:44:51;;;;;;;16.65;8.65;;;-3275.20;80.30;;;;;;5022699;28;20044;-79
2022/03/01 05:47:17;;;;;;;17.00;9.20;;;-3275.20;80.50;;;;;;5028940;28;20041;-79
2022/03/01 05:49:42;;;;;;;19.08;9.80;;;-3275.20;80.80;;;;;;5039195;28;20338;-78
2022/03/01 05:52:08;;;;;;;20.05;9.57;;;-3275.10;80.70;;;;;;5023318;28;20044;-79
2022/03/01 05:54:33;;;;;;;17.65;9.55;;;-3275.20;81.00;;;;;;5028481;28;20094;-79
2022/03/01 05:56:59;;;;;;;19.42;9.77;;;-3275.20;80.80;;;;;;5014041;28;20112;-79
2022/03/01 05:59:26;;;;;;;19.48;8.90;;;-3275.30;80.80;;;;;;5026910;28;20146;-80
2022/03/01 06:01:51;;;;;;;19.00;8.68;;;-3275.20;80.70;;;;;;5023341;28;20088;-79
2022/03/01 06:04:17;;;;;;;17.25;8.40;;;-3275.20;80.80;;;;;;5038107;28;20013;-79
2022/03/01 06:06:42;;;;;;;20.60;8.77;;;-3275.30;80.80;;;;;;5016889;28;20071;-79
2022/03/01 06:09:09;;;;;;;18.63;9.23;;;-3275.30;80.60;;;;;;5026080;28;20188;-79
2022/03/01 06:11:35;;;;;;;18.15;9.40;;;-3275.30;80.60;;;;;;5027447;28;20044;-79
2022/03/01 06:14:00;;;;;;;21.80;9.32;;;-3275.30;80.50;;;;;;5027908;28;20729;-79
2022/03/01 06:16:26;;;;;;;17.38;9.82;;;-3275.30;80.30;;;;;;5028817;28;20037;-79
2022/03/01 06:18:51;;;;;;;19.50;10.18;;;-3275.30;80.30;;;;;;5045920;28;20044;-80
2022/03/01 06:21:17;;;;;;;21.77;10.68;;;-3275.30;80.30;;;;;;5038995;28;20033;-79
2022/03/01 06:23:43;;;;;;;20.60;9.88;;;-3275.30;80.50;;;;;;5024993;28;20128;-80
2022/03/01 06:26:08;;;;;;;21.25;10.10;;;-3275.30;80.50;;;;;;5026943;28;20120;-80
2022/03/01 06:28:35;;;;;;;20.73;9.15;;;-3275.30;80.40;;;;;;5029247;28;20127;-80
2022/03/01 06:31:00;;;;;;;17.92;9.63;;;-3275.40;80.30;;;;;;5019427;28;20103;-79
2022/03/01 06:33:26;;;;;;;17.90;9.60;;;-3275.40;80.30;;;;;;5010272;28;20116;-79
2022/03/01 06:35:51;;;;;;;19.42;9.10;;;-3275.40;80.10;;;;;;5027519;28;20064;-79
2022/03/01 06:38:17;;;;;;;20.58;10.23;;;-3275.50;80.20;;;;;;5026174;28;20072;-79
2022/03/01 06:40:43;;;;;;;18.70;9.15;;;-3275.50;80.20;;;;;;5028646;28;20574;-78
2022/03/01 06:43:08;;;;;;;22.65;10.68;;;-3275.60;79.90;;;;;;5026011;28;20341;-79
2022/03/01 06:45:34;;;;;;;15.85;8.90;;;-3275.60;79.60;;;;;;5035562;28;20063;-79
2022/03/01 06:47:59;;;;;;;19.00;9.82;;;-3275.70;79.50;;;;;;5044880;28;20049;-79
2022/03/01 06:50:26;;;;;;;21.92;10.48;;;-3275.70;79.50;;;;;;5025488;28;20048;-79
2022/03/01 06:52:52;;;;;;;23.30;10.98;;;-3275.70;79.40;;;;;;5036352;28;20322;-79
2022/03/01 06:55:21;;;;;;;18.33;9.60;;;-3275.80;79.30;;;;;;5026499;28;20043;-79
2022/03/01 06:57:47;;;;;;;22.95;10.00;;;-3275.80;79.10;;;;;;5041414;28;20227;-78
2022/03/01 07:00:14;;;;;;;19.95;9.38;;;-3275.80;79.10;;;;;;5029194;28;20115;-79
2022/03/01 07:02:40;;;;;;;15.48;7.82;;;-3275.90;78.80;;;;;;5045407;28;20025;-79
2022/03/01 07:05:08;;;;;;;18.63;9.93;;;-3276.00;78.70;;;;;;5015639;28;20473;-79
2022/03/01 07:07:34;;;;;;;22.55;10.45;;;-3276.00;78.60;;;;;;5025095;28;20052;-79
2022/03/01 07:10:00;;;;;;;21.05;10.02;;;-3276.10;78.20;;;;;;5033075;28;20079;-79
2022/03/01 07:12:25;;;;;;;21.40;10.80;;;-3276.10;78.20;;;;;;5041696;28;20036;-80
2022/03/01 07:14:53;;;;;;;20.85;10.30;;;-3276.20;77.90;;;;;;5033735;28;20090;-80
2022/03/01 07:17:20;;;;;;;19.13;9.40;;;-3276.30;77.70;;;;;;5026908;28;20075;-79
2022/03/01 07:19:45;;;;;;;19.60;9.52;;;-3276.40;77.50;;;;;;5026022;28;20579;-79
2022/03/01 07:22:11;;;;;;;20.15;9.18;;;;;;;;;;5038855;28;20037;-79
2022/03/01 07:24:37;;;;;;;20.55;9.82;;;-3276.50;77.30;;;;;;5034668;28;20025;-79
2022/03/01 07:27:03;;;;;;;20.17;9.48;;;-3276.60;77.20;;;;;;5032467;28;20040;-79
2022/03/01 07:29:30;;;;;;;21.40;10.82;;;-3276.70;76.90;;;;;;5022183;28;20033;-79
2022/03/01 07:31:57;;;;;;;17.45;9.48;;;0.00;76.70;;;;;;5049831;28;20109;-80
2022/03/01 07:34:23;;;;;;;18.73;10.55;;;0.00;76.60;;;;;;5032227;28;20111;-79
2022/03/01 07:36:49;;;;;;;22.10;10.40;;;0.10;76.50;;;;;;5030872;28;20033;-79
2022/03/01 07:39:14;;;;;;;22.80;10.70;;;0.10;76.30;;;;;;5048976;28;20495;-79
2022/03/01 07:41:40;;;;;;;18.25;9.05;;;0.20;76.20;;;;;;5021507;28;20036;-79
2022/03/01 07:44:05;;;;;;;19.40;10.30;;;0.20;75.70;;;;;;5044905;28;20108;-79
2022/03/01 07:46:31;;;;;;;19.23;10.25;;;0.30;75.50;;;;;;5050297;28;20158;-79
2022/03/01 07:48:57;;;;;;;18.98;10.15;;;0.40;75.10;;;;;;5030706;28;20017;-79
2022/03/01 07:51:22;;;;;;;20.40;11.23;;;0.50;74.90;;;;;;5034916;28;20020;-79
2022/03/01 07:53:48;;;;;;;24.10;12.07;;;0.50;74.50;;;;;;5029022;28;20029;-79
2022/03/01 07:56:14;;;;;;;16.63;9.88;;;0.60;74.80;;;;;;5043668;28;20048;-79
2022/03/01 07:58:39;;;;;;;20.60;10.73;;;0.80;74.50;;;;;;5039528;28;20029;-79
2022/03/01 08:01:05;;;;;;;22.30;10.80;;;0.80;74.00;;;;;;5041120;28;20032;-79
2022/03/01 08:03:30;;;;;;;18.92;10.75;;;0.90;74.00;;;;;;5020784;28;20032;-79
2022/03/01 08:05:57;;;;;;;21.92;10.43;;;1.10;73.00;;;;;;5044910;28;20029;-79
2022/03/01 08:08:23;;;;;;;21.13;10.75;;;1.20;73.30;;;;;;5027375;28;20029;-79
2022/03/01 08:10:52;;;;;;;18.63;9.60;;;1.40;72.90;;;;;;5022994;28;20365;-79
2022/03/01 08:13:17;;;;;;;19.90;9.45;;;1.40;72.30;;;;;;5025783;28;20025;-79
2022/03/01 08:15:43;;;;;;;19.35;9.73;;;1.60;71.60;;;;;;5022686;28;20364;-79
2022/03/01 08:18:08;;;;;;;19.63;10.32;;;1.70;71.30;;;;;;5021607;28;20130;-79
2022/03/01 08:20:35;;;;;;;19.10;10.07;;;1.80;70.70;;;;;;5024223;28;20094;-79
2022/03/01 08:23:02;;;;;;;19.25;10.35;;;1.80;70.20;;;;;;5040577;28;20091;-80
2022/03/01 08:25:28;;;;;;;18.52;10.02;;;2.00;70.80;;;;;;5032853;28;20029;-79
2022/03/01 08:27:56;;;;;;;19.75;10.10;;;2.20;70.40;;;;;;5028600;28;20028;-79
2022/03/01 08:30:22;;;;;;;16.63;8.93;;;2.10;69.90;;;;;;5028722;28;20025;-78
2022/03/01 08:32:49;;;;;;;20.00;10.57;;;1.90;69.70;;;;;;5025416;28;20414;-78
2022/03/01 08:35:14;;;;;;;19.13;10.07;;;1.90;70.70;;;;;;5026611;28;20038;-78
2022/03/01 08:37:40;;;;;;;20.77;10.48;;;1.80;70.60;;;;;;5042241;28;20042;-79
2022/03/01 08:40:07;;;;;;;17.42;8.85;;;1.80;70.90;;;;;;5044238;28;20067;-78
2022/03/01 08:42:32;;;;;;;21.75;10.48;;;1.80;70.80;;;;;;5026356;28;20079;-79
2022/03/01 08:44:58;;;;;;;20.73;10.57;;;1.90;70.70;;;;;;5033901;28;20048;-78
2022/03/01 08:47:26;;;;;;;20.38;11.25;;;1.90;70.30;;;;;;5020215;28;20029;-78
2022/03/01 08:49:52;;;;;;;18.73;10.38;;;2.20;70.30;;;;;;5023546;28;20025;-80
2022/03/01 08:52:17;;;;;;;21.63;11.02;;;2.30;69.40;;;;;;5041454;28;20242;-78
2022/03/01 08:54:43;;;;;;;20.50;9.80;;;2.50;69.10;;;;;;5025557;28;20484;-78
2022/03/01 08:57:09;;;;;;;20.58;9.93;;;2.70;69.30;;;;;;5028949;28;20244;-79
2022/03/01 08:59:34;;;;;;;20.08;10.55;;;2.70;69.00;;;;;;5033102;28;20056;-79
2022/03/01 09:02:00;;;;;;;19.58;10.13;;;2.70;68.20;;;;;;5028781;28;20476;-79
2022/03/01 09:04:25;;;;;;;18.10;10.07;;;3.10;67.80;;;;;;5017604;28;20075;-79
2022/03/01 09:06:51;;;;;;;20.42;10.38;;;3.10;66.80;;;;;;5042436;28;20104;-79
2022/03/01 09:09:16;;;;;;;22.00;10.48;;;3.50;66.60;;;;;;5023302;28;20165;-79
2022/03/01 09:11:42;;;;;;;19.42;11.48;;;3.80;65.80;;;;;;5029551;28;20144;-79
2022/03/01 09:14:07;;;;;;;19.65;9.82;;;3.50;65.40;;;;;;5039272;28;20029;-79
2022/03/01 09:16:33;;;;;;;19.42;10.73;;;3.30;66.10;;;;;;5038563;28;20036;-79
2022/03/01 09:18:58;;;;;;;17.77;10.60;;;3.20;66.90;;;;;;5036114;28;20078;-79
2022/03/01 09:21:24;;;;;;;18.60;10.60;;;3.30;66.40;;;;;;5035587;28;20117;-79
2022/03/01 09:23:49;;;;;;;18.95;10.38;;;3.50;66.10;;;;;;5030409;28;20108;-79
2022/03/01 09:26:15;;;;;;;20.67;9.48;;;3.90;66.30;;;;;;5033540;28;20040;-79
2022/03/01 09:28:41;;;;;;;17.17;9.85;;;4.10;65.00;;;;;;5035613;28;20169;-79
2022/03/01 09:31:08;;;;;;;21.00;10.50;;;4.20;64.80;;;;;;5029631;28;20029;-79
2022/03/01 09:33:34;;;;;;;18.00;9.95;;;4.30;64.00;;;;;;5022975;28;20148;-78
2022/03/01 09:36:01;;;;;;;23.58;10.63;;;4.10;63.40;;;;;;5026051;28;20858;-78
2022/03/01 09:38:26;;;;;;;17.70;10.30;;;4.20;64.40;;;;;;5021149;28;20033;-79
2022/03/01 09:40:52;;;;;;;19.60;10.68;;;4.30;63.40;;;;;;5029583;28;20040;-79
2022/03/01 09:43:20;;;;;;;22.40;10.15;;;4.50;63.50;;;;;;5026213;28;20017;-79
2022/03/01 09:45:45;;;;;;;20.27;9.77;;;5.00;63.00;;;;;;5025884;28;20519;-79
2022/03/01 09:48:11;;;;;;;16.23;10.02;;;5.40;62.50;;;;;;5029143;28;20123;-79
2022/03/01 09:50:37;;;;;;;20.00;10.38;;;5.40;60.70;;;;;;5029565;28;20056;-79
2022/03/01 09:53:03;;;;;;;21.05;10.93;;;5.60;61.20;;;;;;5028426;28;20123;-79
2022/03/01 09:55:29;;;;;;;19.83;10.13;;;6.00;61.30;;;;;;5018076;28;20025;-79
2022/03/01 09:57:56;;;;;;;19.88;10.63;;;6.10;58.90;;;;;;5025497;28;20463;-79
2022/03/01 10:00:23;;;;;;;17.45;10.05;;;5.80;59.50;;;;;;5040444;28;20017;-79
2022/03/01 10:02:56;;;;;;;18.33;9.90;;;5.40;59.90;;;;;;5040025;28;20076;-79
2022/03/01 10:05:37;;;;;;;18.08;10.13;;;5.60;61.00;;;;;;5039980;28;20071;-79
2022/03/01 10:08:11;;;;;;;16.48;9.40;;;5.60;60.20;;;;;;5043734;28;20103;-79
2022/03/01 10:10:43;;;;;;;19.60;9.95;;;5.90;60.40;;;;;;5028097;28;20114;-79
2022/03/01 10:13:09;;;;;;;18.88;9.93;;;6.00;59.00;;;;;;5034139;28;20388;-79
2022/03/01 10:15:35;;;;;;;19.83;10.88;;;6.20;60.20;;;;;;5040620;28;20026;-79
2022/03/01 10:18:12;;;;;;;17.75;10.32;;;6.50;59.40;;;;;;5027180;28;20079;-79
2022/03/01 10:20:39;;;;;;;18.48;9.93;;;6.20;57.50;;;;;;5029220;28;20174;-79
2022/03/01 10:23:06;;;;;;;19.40;10.23;;;6.20;58.00;;;;;;5030252;28;20033;-79
2022/03/01 10:25:33;;;;;;;18.55;10.60;;;6.50;58.40;;;;;;5041213;28;20102;-78
2022/03/01 10:27:58;;;;;;;18.50;9.98;;;6.60;58.30;;;;;;5019345;28;20044;-79
2022/03/01 10:30:26;;;;;;;15.95;9.80;;;6.60;57.30;;;;;;5035461;28;20050;-79
2022/03/01 10:33:20;;;;;;;20.58;10.18;;;6.60;57.80;;;;;;5035554;28;20041;-79
2022/03/01 10:35:57;;;;;;;19.88;10.10;;;6.60;58.20;;;;;;5016866;28;20044;-79
2022/03/01 10:38:24;;;;;;;15.75;9.88;;;6.60;57.80;;;;;;5008145;28;20025;-79
2022/03/01 10:40:57;;;;;;;16.77;10.60;;;6.50;57.80;;;;;;5023627;28;20471;-79
2022/03/01 10:43:25;;;;;;;23.17;10.68;;;6.70;58.10;;;;;;5017472;28;20380;-78
2022/03/01 10:45:53;;;;;;;19.42;10.27;;;6.70;58.40;;;;;;5016879;28;20056;-78
2022/03/01 10:48:28;;;;;;;20.08;10.52;;;6.40;58.50;;;;;;5044604;28;20033;-77
2022/03/01 10:50:59;;;;;;;17.65;10.70;;;6.50;58.50;;;;;;5027567;28;20101;-77
2022/03/01 10:53:35;;;;;;;;;;;6.40;58.60;;;;;;5043878;28;20101;-77
2022/03/01 10:56:06;;;;;;;17.05;9.20;;;6.40;58.40;;;;;;5045311;28;19935;-78
2022/03/01 10:58:33;;;;;;;18.85;10.20;;;6.50;58.60;;;;;;5038531;28;20082;-78
2022/03/01 11:00:58;;;;;;;16.75;9.55;;;6.40;58.10;;;;;;5028458;28;20104;-78
2022/03/01 11:03:24;;;;;;;17.80;9.75;;;6.30;58.50;;;;;;5046122;28;20092;-78
2022/03/01 11:05:54;;;;;;;20.52;10.95;;;6.70;58.80;;;;;;5048834;28;20025;-76
2022/03/01 11:08:23;;;;;;;22.38;10.60;;;6.70;57.80;;;;;;5031496;28;20102;-76
2022/03/01 11:10:50;;;;;;;16.55;10.30;;;6.50;58.10;;;;;;5050213;28;20139;-78
2022/03/01 11:13:20;;;;;;;21.10;10.40;;;7.20;58.00;;;;;;5043688;28;20043;-78
2022/03/01 11:16:31;;;;;;;17.02;9.68;;;7.40;56.90;;;;;;5023953;28;20033;-78
2022/03/01 11:19:10;;;;;;;;;;;8.10;54.70;;;;;;4925783;29;20105;-78
2022/03/01 11:21:40;;;;;;;17.40;10.05;;;8.30;53.90;;;;;;4947892;28;20056;-78
2022/03/01 11:24:06;;;;;;;19.65;10.23;;;8.10;53.80;;;;;;4991547;28;20419;-78
2022/03/01 11:26:37;;;;;;;18.52;11.18;;;8.00;54.20;;;;;;5035792;28;20131;-76
2022/03/01 11:29:15;;;;;;;17.05;9.98;;;7.80;54.90;;;;;;5043844;28;20500;-76
2022/03/01 11:31:42;;;;;;;17.88;9.80;;;7.70;55.70;;;;;;5024811;28;20156;-76
2022/03/01 11:34:20;;;;;;;17.63;9.93;;;7.80;55.30;;;;;;5040216;28;20076;-76
2022/03/01 11:36:52;;;;;;;16.40;9.80;;;7.60;54.20;;;;;;5012694;28;20033;-76
2022/03/01 11:39:30;;;;;;;18.02;10.52;;;7.60;55.10;;;;;;5034072;28;20013;-76
2022/03/01 11:42:17;;;;;;;17.35;9.95;;;7.60;55.70;;;;;;5025311;28;20329;-76
2022/03/01 11:44:49;;;;;;;18.85;10.55;;;8.00;56.70;;;;;;5028677;28;20111;-76
2022/03/01 11:47:30;;;;;;;18.77;10.05;;;8.00;55.10;;;;;;5018813;28;20025;-77
2022/03/01 11:49:56;;;;;;;17.50;10.43;;;7.90;55.60;;;;;;5024980;28;20230;-76
2022/03/01 11:52:25;;;;;;;19.27;11.00;;;8.00;54.30;;;;;;5044301;28;20033;-76
2022/03/01 11:54:53;;;;;;;16.90;9.88;;;8.00;54.60;;;;;;5048312;28;20029;-76
2022/03/01 11:57:27;;;;;;;16.73;9.25;;;8.30;54.80;;;;;;5028609;28;20029;-77
2022/03/01 11:59:58;;;;;;;16.85;10.25;;;8.10;53.70;;;;;;5044866;28;20067;-76
2022/03/01 12:02:27;;;;;;;17.48;10.45;;;8.30;54.20;;;;;;5031075;28;20036;-77
2022/03/01 12:04:55;;;;;;;14.90;9.52;;;8.30;54.30;;;;;;5030268;28;20025;-77
2022/03/01 12:07:26;;;;;;;16.23;9.70;;;8.10;54.70;;;;;;5031321;28;20125;-77
2022/03/01 12:10:01;;;;;;;16.92;10.00;;;8.30;54.70;;;;;;5033881;28;20032;-77
2022/03/01 12:12:43;;;;;;;16.30;10.07;;;8.50;54.20;;;;;;5041809;28;20382;-77
2022/03/01 12:15:09;;;;;;;17.33;10.18;;;8.50;55.00;;;;;;5031077;28;20017;-76
2022/03/01 12:17:45;;;;;;;19.70;10.88;;;8.30;53.90;;;;;;5040078;28;20472;-77
2022/03/01 12:20:14;;;;;;;18.60;10.43;;;8.30;54.30;;;;;;5047137;28;20036;-77
2022/03/01 12:22:50;;;;;;;18.27;10.13;;;8.40;54.40;;;;;;5040988;28;20461;-76
2022/03/01 12:25:16;;;;;;;16.40;9.77;;;8.10;55.50;;;;;;5046750;28;20155;-77
2022/03/01 12:27:42;;;;;;;16.75;10.32;;;8.20;55.80;;;;;;5027114;28;20037;-77
2022/03/01 12:30:09;;;;;;;17.38;10.05;;;8.20;54.30;;;;;;5042932;28;20021;-77